Time;durP1;ratioP1;P1;durP2;ratioP2;P2;SDS_P1;SDS_P2;PMS_P1;PMS_P2;Temp;Humidity;BMP_temperature;BMP_pressure;BME280_temperature;BME280_humidity;BME280_pressure;Samples;Min_cycle;Max_cycle;Signal;HPM_P1;HPM_P2
2022/10/01 00:01:13;;;;;;;6.63;5.97;;;14.40;99.90;;;;;;4971531;28;95059;-71
2022/10/01 00:03:41;;;;;;;7.75;6.82;;;14.40;99.90;;;;;;4956011;28;92864;-71
2022/10/01 00:06:18;;;;;;;8.13;7.47;;;14.20;99.90;;;;;;4956148;28;94885;-71
2022/10/01 00:08:47;;;;;;;7.50;6.80;;;14.20;99.90;;;;;;4957328;28;92441;-71
2022/10/01 00:11:18;;;;;;;7.50;6.90;;;14.20;99.90;;;;;;4955570;28;93479;-71
2022/10/01 00:13:45;;;;;;;7.78;7.03;;;14.10;99.90;;;;;;4956725;28;93959;-71
2022/10/01 00:16:16;;;;;;;8.00;7.30;;;14.00;99.90;;;;;;4939768;28;92519;-71
2022/10/01 00:18:44;;;;;;;7.45;6.75;;;14.00;99.90;;;;;;4955608;28;92507;-71
2022/10/01 00:21:15;;;;;;;8.00;7.30;;;13.90;99.90;;;;;;4956841;28;93232;-71
2022/10/01 00:23:42;;;;;;;8.40;7.10;;;13.80;99.90;;;;;;4972342;28;93021;-71
2022/10/01 00:26:20;;;;;;;7.45;6.75;;;13.80;99.90;;;;;;4954688;28;92515;-71
2022/10/01 00:28:52;;;;;;;8.40;7.55;;;13.80;99.90;;;;;;4957154;28;92861;-71
2022/10/01 00:31:19;;;;;;;7.28;6.65;;;13.70;99.90;;;;;;4953916;28;98220;-71
2022/10/01 00:33:46;;;;;;;10.18;7.75;;;13.60;99.90;;;;;;4971576;28;98065;-71
2022/10/01 00:36:13;;;;;;;8.93;8.05;;;13.60;99.90;;;;;;4956944;28;92444;-70
2022/10/01 00:38:41;;;;;;;8.27;7.10;;;13.50;99.90;;;;;;4955589;28;92387;-70
2022/10/01 00:41:08;;;;;;;8.82;7.93;;;13.50;99.90;;;;;;4956479;28;93232;-70
2022/10/01 00:43:41;;;;;;;8.57;7.88;;;13.40;99.90;;;;;;4956380;28;92919;-71
2022/10/01 00:46:19;;;;;;;7.70;6.90;;;13.40;99.90;;;;;;4957059;28;92717;-71
2022/10/01 00:49:13;;;;;;;8.43;7.22;;;13.40;99.90;;;;;;4956320;28;91734;-71
2022/10/01 00:51:45;;;;;;;8.32;7.63;;;13.30;99.90;;;;;;4950425;28;92603;-71
2022/10/01 00:54:18;;;;;;;8.15;7.55;;;13.20;99.90;;;;;;4971331;28;95692;-70
2022/10/01 00:56:46;;;;;;;9.10;6.82;;;13.20;99.90;;;;;;4970306;28;94885;-70
2022/10/01 00:59:15;;;;;;;8.02;7.40;;;13.20;99.90;;;;;;4955172;28;92474;-71
2022/10/01 01:01:42;;;;;;;8.55;7.65;;;13.20;99.90;;;;;;4955694;28;92520;-70
2022/10/01 01:04:18;;;;;;;8.98;8.05;;;13.20;99.90;;;;;;4954855;28;100469;-71
2022/10/01 01:06:58;;;;;;;7.95;7.10;;;13.10;99.90;;;;;;4955285;28;92467;-71
2022/10/01 01:09:29;;;;;;;9.98;7.95;;;13.10;99.90;;;;;;4956409;28;92921;-70
2022/10/01 01:12:32;;;;;;;9.77;8.43;;;13.10;99.90;;;;;;4955000;28;95734;-71
2022/10/01 01:15:28;;;;;;;8.95;8.25;;;13.10;99.90;;;;;;4971433;28;95645;-71
2022/10/01 01:18:14;;;;;;;8.20;6.93;;;13.10;99.90;;;;;;4935903;28;92721;-70
2022/10/01 01:20:49;;;;;;;7.95;7.15;;;13.10;99.90;;;;;;4954447;28;92503;-70
2022/10/01 01:23:15;;;;;;;9.05;8.25;;;13.00;99.90;;;;;;4969888;28;98593;-70
2022/10/01 01:26:15;;;;;;;8.95;7.78;;;12.90;99.90;;;;;;4954005;28;95480;-70
2022/10/01 01:28:49;;;;;;;7.38;6.68;;;13.00;99.90;;;;;;4956041;28;92484;-70
2022/10/01 01:31:28;;;;;;;9.68;8.00;;;12.90;99.90;;;;;;4971361;28;92474;-70
2022/10/01 01:33:56;;;;;;;8.95;8.07;;;12.90;99.90;;;;;;4955995;28;93167;-71
2022/10/01 01:36:31;;;;;;;8.65;7.75;;;12.90;99.90;;;;;;4955875;28;93536;-71
2022/10/01 01:39:02;;;;;;;10.13;8.50;;;13.00;99.90;;;;;;4956289;28;92479;-71
2022/10/01 01:41:34;;;;;;;9.25;8.38;;;12.90;99.90;;;;;;4956106;28;92163;-71
2022/10/01 01:44:07;;;;;;;9.63;8.57;;;13.00;99.90;;;;;;4954354;28;95897;-70
2022/10/01 01:46:39;;;;;;;9.23;8.40;;;12.90;99.90;;;;;;4955831;28;93235;-70
2022/10/01 01:49:07;;;;;;;8.95;8.18;;;13.00;99.90;;;;;;4969648;28;94849;-71
2022/10/01 01:51:44;;;;;;;9.15;8.27;;;12.90;99.90;;;;;;4955500;28;92463;-71
2022/10/01 01:54:11;;;;;;;8.23;7.47;;;12.90;99.90;;;;;;4954300;28;95638;-70
2022/10/01 01:56:38;;;;;;;9.02;8.13;;;12.90;99.90;;;;;;4953917;28;95557;-70
2022/10/01 01:59:07;;;;;;;8.27;7.45;;;12.80;99.90;;;;;;4954375;28;93136;-70
2022/10/01 02:01:41;;;;;;;8.82;7.90;;;12.80;99.90;;;;;;4924531;28;92605;-70
2022/10/01 02:04:11;;;;;;;;;;;12.80;99.90;;;;;;4974338;28;95718;-70
2022/10/01 02:07:10;;;;;;;9.20;8.32;;;12.70;99.90;;;;;;4960425;28;92599;-70
2022/10/01 02:10:04;;;;;;;8.40;7.28;;;12.70;99.90;;;;;;4927589;28;92499;-70
2022/10/01 02:13:09;;;;;;;8.48;7.78;;;12.70;99.90;;;;;;4958684;28;92367;-71
2022/10/01 02:16:00;;;;;;;6.45;5.85;;;12.70;99.90;;;;;;4955967;28;96771;-71
2022/10/01 02:18:44;;;;;;;9.32;8.52;;;12.60;99.90;;;;;;4955684;28;95684;-71
2022/10/01 02:21:33;;;;;;;7.75;6.97;;;12.60;99.90;;;;;;4973885;28;92556;-70
2022/10/01 02:24:26;;;;;;;8.05;7.20;;;12.70;99.90;;;;;;4973814;28;92512;-70
2022/10/01 02:26:57;;;;;;;9.85;7.55;;;12.70;99.90;;;;;;4956460;28;95860;-70
2022/10/01 02:29:24;;;;;;;8.20;7.30;;;12.60;99.90;;;;;;4958438;28;92976;-71
2022/10/01 02:31:54;;;;;;;9.65;8.52;;;12.60;99.90;;;;;;4957177;28;96072;-70
2022/10/01 02:34:26;;;;;;;8.05;7.38;;;12.60;99.90;;;;;;4957981;28;92168;-71
2022/10/01 02:36:56;;;;;;;8.65;7.70;;;12.60;99.90;;;;;;4958472;28;93340;-71
2022/10/01 02:39:28;;;;;;;9.38;8.48;;;12.60;99.90;;;;;;4941198;28;95616;-70
2022/10/01 02:41:58;;;;;;;8.23;7.53;;;12.60;99.90;;;;;;4956977;28;94826;-71
2022/10/01 02:44:36;;;;;;;10.30;9.02;;;12.60;99.90;;;;;;4973448;28;92577;-70
2022/10/01 02:47:06;;;;;;;9.63;8.00;;;12.70;99.90;;;;;;4956889;28;95822;-70
2022/10/01 02:49:35;;;;;;;9.25;8.35;;;12.70;99.90;;;;;;4973062;28;95547;-71
2022/10/01 02:52:12;;;;;;;10.60;8.55;;;12.70;99.90;;;;;;4958493;28;92478;-71
2022/10/01 02:54:49;;;;;;;8.35;7.65;;;12.70;99.90;;;;;;4958110;28;92467;-70
2022/10/01 02:57:23;;;;;;;9.13;8.23;;;12.70;99.90;;;;;;4956858;28;96018;-70
2022/10/01 02:59:50;;;;;;;7.50;6.65;;;12.60;99.90;;;;;;4958473;28;92888;-71
2022/10/01 03:02:18;;;;;;;7.93;7.22;;;12.60;99.90;;;;;;4956974;28;92477;-71
2022/10/01 03:04:48;;;;;;;7.97;6.40;;;12.70;99.90;;;;;;4958011;28;92499;-70
2022/10/01 03:07:17;;;;;;;8.10;7.30;;;12.70;99.90;;;;;;4956765;28;95672;-70
2022/10/01 03:09:44;;;;;;;8.05;7.28;;;12.60;99.90;;;;;;4972645;28;95405;-71
2022/10/01 03:12:11;;;;;;;7.68;6.88;;;12.70;99.90;;;;;;4939910;28;100014;-71
2022/10/01 03:14:38;;;;;;;7.43;6.72;;;12.70;99.90;;;;;;4958083;28;93127;-71
2022/10/01 03:17:06;;;;;;;7.40;6.63;;;12.70;99.90;;;;;;4957909;28;93081;-71
2022/10/01 03:19:33;;;;;;;7.07;6.38;;;12.70;99.90;;;;;;4956253;28;93095;-70
2022/10/01 03:22:00;;;;;;;6.55;5.90;;;12.80;99.90;;;;;;4972604;28;92614;-70
2022/10/01 03:24:27;;;;;;;6.22;5.63;;;12.90;99.90;;;;;;4958368;28;91735;-70
2022/10/01 03:26:56;;;;;;;6.03;5.53;;;12.90;99.90;;;;;;4957164;28;93190;-71
2022/10/01 03:29:24;;;;;;;6.22;5.72;;;12.90;99.90;;;;;;4957752;28;92965;-71
2022/10/01 03:31:51;;;;;;;6.60;6.00;;;13.00;99.90;;;;;;4956256;28;94865;-70
2022/10/01 03:34:19;;;;;;;5.40;4.90;;;13.00;99.90;;;;;;4972594;28;93889;-70
2022/10/01 03:36:45;;;;;;;5.35;4.80;;;13.00;99.90;;;;;;4957293;28;93084;-70
2022/10/01 03:39:12;;;;;;;6.38;5.95;;;13.00;99.90;;;;;;4939866;28;98328;-70
2022/10/01 03:41:39;;;;;;;5.53;5.03;;;13.00;99.90;;;;;;4956513;28;92751;-70
2022/10/01 03:44:06;;;;;;;5.97;5.30;;;13.10;99.90;;;;;;4955391;28;110035;-70
2022/10/01 03:46:33;;;;;;;5.53;5.13;;;13.10;99.90;;;;;;4957401;28;93428;-70
2022/10/01 03:49:00;;;;;;;5.75;5.22;;;13.10;99.90;;;;;;4972627;28;92921;-70
2022/10/01 03:51:28;;;;;;;5.25;4.82;;;13.10;99.90;;;;;;4956371;28;92409;-70
2022/10/01 03:53:55;;;;;;;5.13;4.72;;;13.10;99.90;;;;;;4972062;28;92596;-70
2022/10/01 03:56:23;;;;;;;5.53;4.93;;;13.10;99.90;;;;;;4955972;28;95709;-70
2022/10/01 03:58:50;;;;;;;5.45;4.95;;;13.10;99.90;;;;;;4955747;28;95310;-70
2022/10/01 04:01:17;;;;;;;5.50;5.05;;;13.10;99.90;;;;;;4957124;28;92467;-70
2022/10/01 04:03:44;;;;;;;4.43;4.10;;;13.10;99.90;;;;;;4956202;28;92428;-70
2022/10/01 04:06:11;;;;;;;5.30;4.80;;;13.10;99.90;;;;;;4957277;28;93232;-70
2022/10/01 04:08:38;;;;;;;5.32;4.93;;;13.10;99.90;;;;;;4957192;28;93043;-70
2022/10/01 04:11:05;;;;;;;4.25;3.95;;;13.10;99.90;;;;;;4957070;28;92390;-71
2022/10/01 04:13:33;;;;;;;5.07;4.68;;;13.10;99.90;;;;;;4957294;28;91724;-71
2022/10/01 04:16:04;;;;;;;4.47;4.15;;;13.10;99.90;;;;;;4955193;28;100663;-71
2022/10/01 04:18:32;;;;;;;4.82;4.53;;;13.10;99.90;;;;;;4955553;28;94861;-70
2022/10/01 04:20:59;;;;;;;4.00;3.60;;;13.10;99.90;;;;;;4970663;28;95354;-70
2022/10/01 04:23:26;;;;;;;3.38;3.17;;;13.10;99.90;;;;;;4956129;28;92520;-70
2022/10/01 04:25:53;;;;;;;3.55;3.25;;;13.10;99.90;;;;;;4956239;28;93210;-70
2022/10/01 04:28:20;;;;;;;3.20;3.00;;;13.00;99.90;;;;;;4955286;28;94815;-71
2022/10/01 04:30:47;;;;;;;3.03;2.83;;;13.00;99.90;;;;;;4957093;28;92622;-70
2022/10/01 04:33:15;;;;;;;3.33;3.03;;;13.00;99.90;;;;;;4971510;28;93498;-70
2022/10/01 04:35:43;;;;;;;4.13;3.83;;;13.00;99.90;;;;;;4956538;28;93348;-70
2022/10/01 04:38:15;;;;;;;3.20;3.00;;;13.10;99.90;;;;;;4956775;28;95163;-70
2022/10/01 04:40:42;;;;;;;3.58;3.25;;;13.10;99.90;;;;;;4956643;28;92444;-70
2022/10/01 04:43:11;;;;;;;4.10;3.80;;;13.10;99.90;;;;;;4956420;28;92572;-70
2022/10/01 04:45:38;;;;;;;3.45;3.25;;;13.20;99.90;;;;;;4937858;28;98139;-70
2022/10/01 04:48:05;;;;;;;3.90;3.65;;;13.20;99.90;;;;;;4938134;28;111655;-70
2022/10/01 04:50:32;;;;;;;4.00;3.70;;;13.10;99.90;;;;;;4955611;28;92574;-71
2022/10/01 04:52:59;;;;;;;4.03;3.67;;;13.20;99.90;;;;;;4955098;28;92578;-71
2022/10/01 04:55:26;;;;;;;3.80;3.50;;;13.20;99.90;;;;;;4955174;28;93131;-71
2022/10/01 04:57:53;;;;;;;3.75;3.53;;;13.30;99.90;;;;;;4954979;28;94690;-70
2022/10/01 05:00:23;;;;;;;3.40;3.20;;;13.20;99.90;;;;;;4955281;28;92801;-70
2022/10/01 05:02:51;;;;;;;3.05;2.85;;;13.20;99.90;;;;;;4956906;28;91732;-71
2022/10/01 05:05:21;;;;;;;3.03;2.72;;;13.20;99.90;;;;;;4953840;28;117166;-70
2022/10/01 05:07:48;;;;;;;3.38;3.17;;;13.20;99.90;;;;;;4956017;28;93428;-71
2022/10/01 05:10:18;;;;;;;3.03;2.83;;;13.30;99.90;;;;;;4955040;28;94838;-70
2022/10/01 05:12:46;;;;;;;2.78;2.58;;;13.30;99.90;;;;;;4971525;28;92575;-70
2022/10/01 05:15:15;;;;;;;2.90;2.70;;;13.30;99.90;;;;;;4955830;28;93335;-70
2022/10/01 05:17:42;;;;;;;3.30;3.00;;;13.40;99.90;;;;;;4971226;28;92795;-70
2022/10/01 05:20:18;;;;;;;3.13;2.92;;;13.40;99.90;;;;;;4956140;28;92371;-70
2022/10/01 05:22:46;;;;;;;3.10;2.90;;;13.40;99.90;;;;;;4956125;28;92507;-70
2022/10/01 05:25:13;;;;;;;2.97;2.78;;;13.40;99.90;;;;;;4955307;28;93140;-70
2022/10/01 05:27:40;;;;;;;3.53;3.22;;;13.50;99.90;;;;;;4956462;28;92933;-71
2022/10/01 05:30:09;;;;;;;3.22;2.92;;;13.50;99.90;;;;;;4938391;28;92503;-70
2022/10/01 05:32:36;;;;;;;3.20;2.92;;;13.50;99.90;;;;;;4955941;28;92557;-70
2022/10/01 05:35:06;;;;;;;3.97;3.60;;;13.50;99.90;;;;;;4955964;28;94830;-70
2022/10/01 05:37:33;;;;;;;3.83;3.53;;;13.50;99.90;;;;;;4974278;28;107787;-70
2022/10/01 05:40:00;;;;;;;3.83;3.60;;;13.50;99.90;;;;;;4959284;28;92475;-70
2022/10/01 05:42:27;;;;;;;3.28;3.08;;;13.50;99.90;;;;;;4958188;28;92481;-70
2022/10/01 05:44:54;;;;;;;3.20;3.00;;;13.60;99.90;;;;;;4958158;28;93327;-70
2022/10/01 05:47:22;;;;;;;4.30;4.00;;;13.60;99.90;;;;;;4973964;28;95459;-70
2022/10/01 05:49:48;;;;;;;3.80;3.53;;;13.60;99.90;;;;;;4959501;28;92474;-70
2022/10/01 05:52:16;;;;;;;3.30;3.10;;;13.60;99.90;;;;;;4958275;28;91764;-70
2022/10/01 05:54:43;;;;;;;3.95;3.65;;;13.70;99.90;;;;;;4974151;28;95945;-70
2022/10/01 05:57:10;;;;;;;4.25;4.05;;;13.70;99.90;;;;;;4957741;28;92913;-70
2022/10/01 05:59:36;;;;;;;3.42;3.22;;;13.70;99.90;;;;;;4973088;28;94865;-70
2022/10/01 06:02:03;;;;;;;3.50;3.20;;;13.70;99.90;;;;;;4958857;28;92416;-70
2022/10/01 06:04:30;;;;;;;4.15;3.83;;;13.70;99.90;;;;;;4973708;28;104070;-70
2022/10/01 06:06:57;;;;;;;4.45;4.05;;;13.80;99.90;;;;;;4973933;28;95596;-70
2022/10/01 06:09:25;;;;;;;3.72;3.42;;;13.80;99.90;;;;;;4957754;28;92464;-70
2022/10/01 06:11:51;;;;;;;4.32;4.03;;;13.80;99.90;;;;;;4941370;28;92422;-70
2022/10/01 06:14:18;;;;;;;4.72;4.32;;;13.80;99.90;;;;;;4958808;28;93310;-70
2022/10/01 06:16:46;;;;;;;5.38;4.20;;;13.80;99.90;;;;;;4957754;28;93041;-70
2022/10/01 06:19:13;;;;;;;5.28;4.10;;;13.90;99.90;;;;;;4958852;28;92442;-70
2022/10/01 06:21:40;;;;;;;8.10;7.50;;;13.90;99.90;;;;;;4957732;28;92565;-70
2022/10/01 06:24:08;;;;;;;4.78;4.35;;;13.90;99.90;;;;;;4955865;28;95713;-70
2022/10/01 06:26:35;;;;;;;6.63;5.20;;;13.90;99.90;;;;;;4958455;28;95657;-70
2022/10/01 06:29:02;;;;;;;5.03;4.57;;;14.00;99.90;;;;;;4973823;28;93199;-70
2022/10/01 06:31:29;;;;;;;5.32;4.72;;;14.00;99.90;;;;;;4973291;28;92698;-70
2022/10/01 06:33:56;;;;;;;6.05;5.45;;;14.10;99.90;;;;;;4957133;28;95727;-70
2022/10/01 06:36:23;;;;;;;7.50;6.80;;;14.20;99.90;;;;;;4940587;28;95819;-70
2022/10/01 06:38:50;;;;;;;7.78;7.07;;;14.30;99.90;;;;;;4958643;28;92551;-70
2022/10/01 06:41:18;;;;;;;5.32;4.93;;;14.50;99.90;;;;;;4973621;28;91803;-70
2022/10/01 06:43:47;;;;;;;6.20;5.70;;;14.50;99.90;;;;;;4958082;28;93023;-71
2022/10/01 06:46:14;;;;;;;6.60;6.10;;;14.60;99.90;;;;;;4957306;28;92996;-70
2022/10/01 06:48:41;;;;;;;5.28;4.88;;;14.50;99.90;;;;;;4957231;28;94916;-71
2022/10/01 06:51:08;;;;;;;5.22;4.80;;;14.60;99.90;;;;;;4973265;28;92652;-70
2022/10/01 06:53:35;;;;;;;5.20;4.80;;;14.60;99.90;;;;;;4957910;28;93386;-70
2022/10/01 06:56:06;;;;;;;6.60;6.10;;;14.60;99.90;;;;;;4973164;28;95617;-70
2022/10/01 06:58:33;;;;;;;7.40;6.68;;;14.60;99.90;;;;;;4958062;28;92913;-70
2022/10/01 07:01:02;;;;;;;5.60;5.10;;;14.60;99.90;;;;;;4956685;28;97643;-70
2022/10/01 07:03:30;;;;;;;6.32;5.57;;;14.70;99.90;;;;;;4957765;28;93323;-71
2022/10/01 07:06:02;;;;;;;6.75;6.28;;;14.70;99.90;;;;;;4958371;28;92835;-70
2022/10/01 07:08:29;;;;;;;6.80;6.28;;;14.90;99.90;;;;;;4958203;28;92470;-71
2022/10/01 07:11:02;;;;;;;5.50;5.00;;;15.00;99.90;;;;;;4958146;28;92966;-71
2022/10/01 07:13:29;;;;;;;5.75;5.30;;;15.20;99.90;;;;;;4938979;28;98323;-70
2022/10/01 07:15:57;;;;;;;6.38;5.07;;;15.40;99.90;;;;;;4972265;28;97885;-70
2022/10/01 07:18:24;;;;;;;5.70;5.00;;;15.60;99.90;;;;;;4957970;28;92465;-70
2022/10/01 07:20:51;;;;;;;6.10;5.00;;;15.60;99.90;;;;;;4958092;28;92511;-70
2022/10/01 07:23:18;;;;;;;5.97;5.38;;;15.70;99.90;;;;;;4957399;28;93165;-70
2022/10/01 07:25:45;;;;;;;7.07;5.07;;;15.60;99.90;;;;;;4956357;28;93100;-71
2022/10/01 07:28:16;;;;;;;7.05;6.45;;;15.60;99.90;;;;;;4957978;28;92478;-71
2022/10/01 07:31:06;;;;;;;8.18;5.40;;;15.60;99.90;;;;;;4973285;28;91727;-71
2022/10/01 07:33:33;;;;;;;7.40;6.35;;;15.70;99.90;;;;;;4956391;28;92554;-70
2022/10/01 07:36:06;;;;;;;7.15;6.55;;;15.70;99.90;;;;;;4957237;28;92955;-70
2022/10/01 07:38:33;;;;;;;6.47;5.82;;;15.80;99.90;;;;;;4955290;28;94933;-70
2022/10/01 07:41:01;;;;;;;9.13;6.40;;;15.70;99.90;;;;;;4972221;28;101663;-70
2022/10/01 07:43:30;;;;;;;7.68;6.88;;;15.70;99.90;;;;;;4956957;28;93150;-70
2022/10/01 07:45:58;;;;;;;7.32;6.63;;;15.70;99.90;;;;;;4955957;28;94071;-70
2022/10/01 07:48:26;;;;;;;7.63;7.03;;;15.60;99.90;;;;;;4972212;28;92409;-71
2022/10/01 07:50:53;;;;;;;6.53;5.90;;;15.60;99.90;;;;;;4957551;28;92799;-70
2022/10/01 07:53:22;;;;;;;7.03;6.30;;;15.60;99.90;;;;;;4957094;28;93217;-71
2022/10/01 07:55:49;;;;;;;6.75;5.90;;;15.70;99.90;;;;;;4957429;28;93705;-70
2022/10/01 07:58:17;;;;;;;6.60;6.00;;;15.70;99.90;;;;;;4922651;28;92442;-71
2022/10/01 08:00:44;;;;;;;6.13;5.53;;;15.80;99.90;;;;;;4955780;28;92542;-71
2022/10/01 08:03:11;;;;;;;5.93;5.32;;;15.80;99.90;;;;;;4955512;28;95772;-71
2022/10/01 08:05:41;;;;;;;7.15;6.50;;;15.70;99.90;;;;;;4939242;28;94365;-70
2022/10/01 08:08:08;;;;;;;8.07;6.15;;;15.70;99.90;;;;;;4971871;28;92968;-70
2022/10/01 08:10:37;;;;;;;7.03;5.18;;;15.70;99.90;;;;;;4956745;28;93323;-70
2022/10/01 08:13:15;;;;;;;8.27;6.30;;;15.70;99.90;;;;;;4955306;28;96128;-71
2022/10/01 08:15:44;;;;;;;6.03;5.35;;;15.80;99.90;;;;;;4956607;28;92666;-71
2022/10/01 08:18:12;;;;;;;6.00;5.38;;;15.90;99.90;;;;;;4957103;28;92978;-70
2022/10/01 08:20:39;;;;;;;8.82;4.82;;;16.10;99.90;;;;;;4957249;28;91821;-71
2022/10/01 08:23:09;;;;;;;6.60;5.53;;;16.20;99.90;;;;;;4956520;28;93230;-71
2022/10/01 08:25:37;;;;;;;7.68;4.70;;;16.40;99.90;;;;;;4956002;28;93263;-71
2022/10/01 08:28:05;;;;;;;7.63;4.93;;;16.50;99.90;;;;;;4954611;28;94874;-71
2022/10/01 08:30:34;;;;;;;6.55;4.90;;;16.50;99.90;;;;;;4955099;28;92597;-71
2022/10/01 08:33:02;;;;;;;7.78;5.43;;;16.60;99.90;;;;;;4955297;28;95723;-71
2022/10/01 08:35:29;;;;;;;6.68;3.60;;;16.50;99.90;;;;;;4956264;28;92842;-71
2022/10/01 08:38:04;;;;;;;7.72;4.28;;;16.60;99.90;;;;;;4954775;28;104852;-71
2022/10/01 08:40:49;;;;;;;5.60;3.90;;;16.60;99.90;;;;;;4971761;28;92538;-71
2022/10/01 08:43:30;;;;;;;6.28;4.63;;;16.60;99.90;;;;;;4955384;28;93302;-71
2022/10/01 08:46:04;;;;;;;4.45;4.05;;;16.70;99.90;;;;;;4971812;28;95421;-71
2022/10/01 08:48:34;;;;;;;7.65;5.07;;;16.70;99.90;;;;;;4955712;28;93011;-71
2022/10/01 08:51:05;;;;;;;6.38;3.05;;;16.70;99.90;;;;;;4939121;28;92510;-71
2022/10/01 08:53:56;;;;;;;9.00;3.40;;;16.70;99.90;;;;;;4969889;28;98149;-71
2022/10/01 08:56:29;;;;;;;6.80;3.63;;;16.80;99.90;;;;;;4956476;28;96152;-71
2022/10/01 08:58:59;;;;;;;7.40;3.63;;;16.80;99.90;;;;;;4971598;28;92648;-71
2022/10/01 09:01:27;;;;;;;7.13;3.30;;;16.90;99.90;;;;;;4971329;28;92479;-71
2022/10/01 09:03:54;;;;;;;8.55;3.40;;;17.00;99.90;;;;;;4954640;28;93251;-71
2022/10/01 09:06:24;;;;;;;9.52;3.28;;;17.10;99.90;;;;;;4954946;28;96128;-71
2022/10/01 09:09:27;;;;;;;8.05;2.88;;;17.20;99.90;;;;;;4954199;28;92852;-71
2022/10/01 09:12:15;;;;;;;8.52;3.13;;;17.30;99.90;;;;;;4971120;28;91719;-71
2022/10/01 09:15:04;;;;;;;10.98;3.67;;;17.30;99.90;;;;;;4954871;28;93290;-71
2022/10/01 09:18:03;;;;;;;10.20;3.00;;;17.40;99.90;;;;;;4956225;28;93036;-71
2022/10/01 09:20:30;;;;;;;8.15;2.65;;;17.50;99.90;;;;;;4938189;28;95028;-71
2022/10/01 09:23:16;;;;;;;8.00;3.92;;;17.60;99.90;;;;;;4938431;28;92489;-71
2022/10/01 09:25:49;;;;;;;8.20;2.75;;;17.70;99.90;;;;;;4955703;28;93306;-71
2022/10/01 09:28:18;;;;;;;7.00;2.53;;;17.80;99.90;;;;;;4954504;28;94129;-71
2022/10/01 09:31:10;;;;;;;9.98;2.80;;;17.90;99.90;;;;;;4954377;28;92539;-71
2022/10/01 09:33:41;;;;;;;13.85;2.80;;;18.10;99.90;;;;;;4954693;28;92658;-71
2022/10/01 09:36:33;;;;;;;8.43;3.08;;;18.10;99.90;;;;;;4954397;28;95713;-71
2022/10/01 09:39:15;;;;;;;13.50;3.58;;;18.10;99.90;;;;;;4956339;28;92779;-71
2022/10/01 09:41:44;;;;;;;6.20;2.40;;;18.20;99.90;;;;;;4956133;28;92763;-71
2022/10/01 09:44:26;;;;;;;10.88;3.15;;;18.10;99.90;;;;;;4955720;28;92478;-71
2022/10/01 09:46:56;;;;;;;9.73;2.33;;;18.30;99.90;;;;;;4954429;28;95636;-71
2022/10/01 09:49:35;;;;;;;8.65;2.30;;;18.50;99.90;;;;;;4955806;28;94229;-71
2022/10/01 09:52:11;;;;;;;9.35;2.92;;;18.70;99.90;;;;;;4954382;28;92486;-71
2022/10/01 09:54:45;;;;;;;5.15;2.65;;;18.90;99.90;;;;;;4955679;28;92438;-71
2022/10/01 09:57:19;;;;;;;6.07;3.60;;;19.20;99.90;;;;;;4938371;28;96021;-71
2022/10/01 10:00:06;;;;;;;10.02;3.15;;;19.40;99.90;;;;;;4970485;28;95730;-71
2022/10/01 10:02:42;;;;;;;10.25;2.13;;;19.80;99.90;;;;;;4956048;28;92863;-71
2022/10/01 10:05:19;;;;;;;7.68;2.50;;;19.90;99.90;;;;;;4956188;28;92101;-71
2022/10/01 10:07:54;;;;;;;8.75;3.08;;;20.00;99.90;;;;;;4954301;28;93250;-71
2022/10/01 10:10:38;;;;;;;7.53;2.42;;;20.00;99.90;;;;;;4955631;28;93035;-71
2022/10/01 10:13:05;;;;;;;;;;;20.10;99.90;;;;;;4937454;28;94910;-71
2022/10/01 10:15:32;;;;;;;4.40;2.03;;;19.90;99.90;;;;;;4956604;28;92491;-71
2022/10/01 10:18:16;;;;;;;8.45;2.75;;;19.90;99.90;;;;;;4953889;28;93196;-71
2022/10/01 10:20:52;;;;;;;4.75;2.50;;;20.20;99.90;;;;;;4955068;28;93060;-71
2022/10/01 10:23:23;;;;;;;6.50;2.22;;;20.30;99.90;;;;;;4958946;28;92389;-71
2022/10/01 10:26:06;;;;;;;3.28;1.60;;;20.30;99.90;;;;;;4958559;28;92589;-71
2022/10/01 10:28:45;;;;;;;5.28;1.42;;;20.20;99.90;;;;;;4958753;28;92481;-71
2022/10/01 10:31:20;;;;;;;4.75;1.85;;;20.10;99.90;;;;;;4942012;28;93851;-71
2022/10/01 10:33:56;;;;;;;4.35;1.83;;;20.10;99.90;;;;;;4958652;28;92425;-71
2022/10/01 10:36:29;;;;;;;3.70;1.52;;;20.00;99.90;;;;;;4958941;28;93212;-71
2022/10/01 10:38:58;;;;;;;7.22;2.08;;;19.90;99.90;;;;;;4957230;28;95619;-71
2022/10/01 10:41:27;;;;;;;5.50;1.85;;;19.80;99.90;;;;;;4956695;28;106166;-71
2022/10/01 10:43:59;;;;;;;5.95;2.10;;;19.70;99.90;;;;;;4956683;28;92687;-71
2022/10/01 10:46:30;;;;;;;4.40;1.50;;;19.50;99.90;;;;;;4973485;28;92542;-71
2022/10/01 10:49:21;;;;;;;5.38;1.95;;;19.20;99.90;;;;;;4958329;28;93633;-71
2022/10/01 10:51:52;;;;;;;3.30;1.30;;;18.90;99.90;;;;;;4957846;28;93066;-71
2022/10/01 10:54:36;;;;;;;3.90;1.40;;;18.60;99.90;;;;;;4973229;28;92926;-71
2022/10/01 10:57:22;;;;;;;4.88;1.58;;;18.40;99.90;;;;;;4958428;28;91767;-71
2022/10/01 11:00:00;;;;;;;3.10;1.60;;;18.20;99.90;;;;;;4940456;28;95755;-71
2022/10/01 11:02:30;;;;;;;5.03;2.33;;;18.00;99.90;;;;;;4973299;28;95777;-71
2022/10/01 11:05:01;;;;;;;5.32;1.60;;;17.90;99.90;;;;;;4954845;28;100835;-71
2022/10/01 11:07:29;;;;;;;4.18;1.40;;;17.70;99.90;;;;;;4958406;28;93307;-71
2022/10/01 11:10:21;;;;;;;5.68;2.92;;;17.50;99.90;;;;;;4957676;28;93042;-71
2022/10/01 11:13:03;;;;;;;7.72;2.35;;;17.50;99.90;;;;;;4957972;28;92910;-71
2022/10/01 11:15:58;;;;;;;6.65;1.98;;;17.40;99.90;;;;;;4972985;28;92454;-71
2022/10/01 11:18:36;;;;;;;4.88;1.98;;;17.30;99.90;;;;;;4957992;28;92409;-71
2022/10/01 11:21:30;;;;;;;3.35;2.13;;;17.20;99.90;;;;;;4957535;28;93289;-71
2022/10/01 11:24:26;;;;;;;7.18;2.22;;;17.20;99.90;;;;;;4972779;28;96846;-71
2022/10/01 11:27:25;;;;;;;8.88;1.92;;;17.20;99.90;;;;;;4955676;28;92593;-71
2022/10/01 11:29:54;;;;;;;4.72;2.45;;;17.30;99.90;;;;;;4957286;28;92491;-71
2022/10/01 11:32:44;;;;;;;4.50;1.65;;;17.30;99.90;;;;;;4954732;28;98210;-71
2022/10/01 11:35:38;;;;;;;5.80;1.80;;;17.50;99.90;;;;;;4956356;28;95360;-71
2022/10/01 11:38:31;;;;;;;4.97;1.80;;;17.70;99.90;;;;;;4957342;28;92469;-71
2022/10/01 11:41:37;;;;;;;7.78;1.88;;;17.80;99.90;;;;;;4947919;28;93054;-71
2022/10/01 11:44:13;;;;;;;5.40;1.67;;;18.20;99.90;;;;;;4935762;28;93125;-71
2022/10/01 11:46:54;;;;;;;5.13;1.40;;;18.30;99.90;;;;;;4972204;28;95490;-71
2022/10/01 11:49:41;;;;;;;8.27;2.15;;;18.40;99.90;;;;;;4956349;28;92417;-71
2022/10/01 11:52:36;;;;;;;4.63;2.33;;;18.50;99.90;;;;;;4957856;28;91760;-71
2022/10/01 12:01:31;;;;;;;9.75;2.20;;;18.30;99.90;;;;;;4956145;28;94853;-71
2022/10/01 12:04:17;;;;;;;3.83;1.95;;;18.20;99.90;;;;;;4957132;28;92511;-71
2022/10/01 12:07:10;;;;;;;7.80;2.70;;;18.20;99.90;;;;;;4939571;28;95893;-71
2022/10/01 12:10:09;;;;;;;9.57;2.07;;;18.20;99.90;;;;;;4972168;28;93510;-71
2022/10/01 12:12:49;;;;;;;6.65;2.50;;;18.20;99.90;;;;;;4971999;28;92628;-71
2022/10/01 12:15:42;;;;;;;7.13;2.00;;;18.20;99.90;;;;;;4957064;28;92365;-71
2022/10/01 12:18:19;;;;;;;6.93;1.98;;;18.20;99.90;;;;;;4955618;28;93294;-71
2022/10/01 12:20:59;;;;;;;10.32;3.83;;;18.30;99.90;;;;;;4957411;28;93053;-71
2022/10/01 12:23:31;;;;;;;9.98;2.22;;;18.40;99.90;;;;;;4957188;28;92493;-71
2022/10/01 12:26:26;;;;;;;6.10;1.70;;;18.30;99.90;;;;;;4955288;28;92608;-71
2022/10/01 12:29:11;;;;;;;6.18;2.00;;;18.50;99.90;;;;;;4955695;28;95770;-71
2022/10/01 12:31:59;;;;;;;8.57;2.83;;;18.60;99.90;;;;;;4956880;28;95217;-71
2022/10/01 12:34:41;;;;;;;7.80;1.75;;;18.70;99.90;;;;;;4955484;28;92489;-71
2022/10/01 12:37:21;;;;;;;5.70;2.42;;;18.80;99.90;;;;;;4971678;28;92526;-71
2022/10/01 12:40:11;;;;;;;5.70;1.80;;;18.70;99.90;;;;;;4956802;28;93250;-71
2022/10/01 12:42:53;;;;;;;9.27;3.78;;;18.70;99.90;;;;;;4949951;28;93117;-71
2022/10/01 12:45:56;;;;;;;10.48;2.42;;;18.70;99.90;;;;;;4938033;28;92494;-71
2022/10/01 12:48:27;;;;;;;8.13;2.47;;;18.60;99.90;;;;;;4939166;28;91763;-71
2022/10/01 12:51:32;;;;;;;8.73;2.38;;;18.50;99.90;;;;;;4938906;28;95925;-71
2022/10/01 12:54:20;;;;;;;7.00;2.88;;;18.60;99.90;;;;;;4956436;28;93253;-71
2022/10/01 12:57:27;;;;;;;7.43;1.90;;;18.50;99.90;;;;;;4953892;28;94971;-71
2022/10/01 12:59:58;;;;;;;5.13;2.47;;;18.60;99.90;;;;;;4956491;28;92382;-71
2022/10/01 13:02:49;;;;;;;5.68;1.90;;;18.60;99.90;;;;;;4973715;28;95739;-71
2022/10/01 13:05:37;;;;;;;7.93;2.40;;;18.80;99.90;;;;;;4960409;28;92791;-71
2022/10/01 13:08:24;;;;;;;8.38;2.60;;;18.80;99.90;;;;;;4956631;28;92452;-71
2022/10/01 13:10:58;;;;;;;12.05;2.30;;;18.90;99.90;;;;;;4956495;28;93058;-71
2022/10/01 13:13:32;;;;;;;7.82;2.08;;;18.90;99.90;;;;;;4970902;28;95818;-71
2022/10/01 13:16:03;;;;;;;;;;;18.90;99.90;;;;;;4957021;28;92974;-71
2022/10/01 13:18:34;;;;;;;9.60;2.20;;;18.90;99.90;;;;;;4988916;28;92454;-71
2022/10/01 13:21:33;;;;;;;6.15;2.28;;;18.90;99.90;;;;;;4971266;28;92512;-71
2022/10/01 13:24:25;;;;;;;6.50;1.95;;;19.00;99.90;;;;;;4952650;28;95702;-71
2022/10/01 13:26:56;;;;;;;8.05;3.78;;;18.90;99.90;;;;;;4955359;28;95425;-71
2022/10/01 13:29:50;;;;;;;4.80;2.88;;;18.90;99.90;;;;;;4971132;28;92833;-71